createdAt,value
2024-03-12T00:00:30.601Z,100152.66
2024-03-12T00:02:58.489Z,100154.50
2024-03-12T00:05:26.471Z,100162.44
2024-03-12T00:07:54.526Z,100157.97
2024-03-12T00:10:22.380Z,100171.41
2024-03-12T00:12:53.634Z,100169.56
2024-03-12T00:15:24.812Z,100168.97
2024-03-12T00:17:55.741Z,100177.91
2024-03-12T00:20:31.631Z,100178.75
2024-03-12T00:23:00.341Z,100177.91
2024-03-12T00:25:29.406Z,100176.28
2024-03-12T00:28:00.571Z,100178.75
2024-03-12T00:30:30.151Z,100188.94
2024-03-12T00:32:59.196Z,100190.53
2024-03-12T00:35:29.728Z,100190.53
2024-03-12T00:37:59.116Z,100189.34
2024-03-12T00:40:35.052Z,100197.06
2024-03-12T00:43:07.175Z,100202.16
2024-03-12T00:45:39.675Z,100202.97
2024-03-12T00:48:10.769Z,100207.44
2024-03-12T00:50:40.367Z,100207.03
2024-03-12T00:53:09.066Z,100209.69
2024-03-12T00:55:37.765Z,100210.50
2024-03-12T00:58:11.898Z,100212.56
2024-03-12T01:00:41.242Z,100219.69
2024-03-12T01:03:10.993Z,100217.84
2024-03-12T01:05:39.974Z,100227.97
2024-03-12T01:08:10.192Z,100229.63
2024-03-12T01:10:38.343Z,100224.94
2024-03-12T01:13:10.219Z,100240.22
2024-03-12T01:15:39.425Z,100235.31
2024-03-12T01:18:09.496Z,100243.66
2024-03-12T01:20:37.958Z,100236.75
2024-03-12T01:23:07.817Z,100235.72
2024-03-12T01:25:37.661Z,100230.88
2024-03-12T01:28:12.053Z,100240.44
2024-03-12T01:30:40.866Z,100239.00
2024-03-12T01:33:09.083Z,100238.19
2024-03-12T01:35:40.999Z,100250.81
2024-03-12T01:38:12.307Z,100252.44
2024-03-12T01:40:43.321Z,100249.78
2024-03-12T01:43:14.024Z,100250.81
2024-03-12T01:45:43.939Z,100254.28
2024-03-12T01:48:12.860Z,100252.88
2024-03-12T01:50:41.641Z,100252.88
2024-03-12T01:53:11.221Z,100258.97
2024-03-12T01:55:43.348Z,100263.66
2024-03-12T01:58:17.563Z,100260.56
2024-03-12T02:00:46.997Z,100270.56
2024-03-12T02:03:16.203Z,100270.75
2024-03-12T02:05:44.398Z,100273.38
2024-03-12T02:08:13.124Z,100269.13
2024-03-12T02:10:41.286Z,100271.97
2024-03-12T02:13:09.621Z,100275.22
2024-03-12T02:15:40.091Z,100278.50
2024-03-12T02:18:10.918Z,100278.66
2024-03-12T02:20:39.218Z,100275.84
2024-03-12T02:23:07.313Z,100279.69
2024-03-12T02:25:36.761Z,100284.59
2024-03-12T02:28:04.834Z,100280.31
2024-03-12T02:30:33.043Z,100280.94
2024-03-12T02:33:01.330Z,100288.25
2024-03-12T02:35:29.189Z,100287.66
2024-03-12T02:37:57.002Z,100286.84
2024-03-12T02:40:25.077Z,100278.50
2024-03-12T02:42:54.434Z,100285.22
2024-03-12T02:45:24.836Z,100293.16
2024-03-12T02:47:53.133Z,100289.50
2024-03-12T02:50:21.276Z,100293.97
2024-03-12T02:52:49.182Z,100292.94
2024-03-12T02:55:17.432Z,100293.16
2024-03-12T02:57:45.606Z,100288.88
2024-03-12T03:00:16.206Z,100289.69
2024-03-12T03:02:45.593Z,100286.03
2024-03-12T03:05:15.786Z,100289.50
2024-03-12T03:07:44.301Z,100285.81
2024-03-12T03:10:13.972Z,100287.88
2024-03-12T03:12:42.561Z,100295.00
2024-03-12T03:15:14.297Z,100294.78
2024-03-12T03:17:46.765Z,100297.41
2024-03-12T03:20:16.350Z,100300.47
2024-03-12T03:22:44.794Z,100305.75
2024-03-12T03:25:14.636Z,100294.38
2024-03-12T03:27:43.765Z,100301.69
2024-03-12T03:30:14.332Z,100301.50
2024-03-12T03:32:43.736Z,100308.59
2024-03-12T03:35:12.402Z,100311.25
2024-03-12T03:37:41.716Z,100304.53
2024-03-12T03:40:12.671Z,100305.75
2024-03-12T03:42:42.874Z,100311.84
2024-03-12T03:45:11.138Z,100310.66
2024-03-12T03:47:39.250Z,100304.94
2024-03-12T03:50:09.436Z,100310.22
2024-03-12T03:52:38.145Z,100313.91
2024-03-12T03:55:08.256Z,100319.19
2024-03-12T03:57:36.342Z,100314.72
2024-03-12T04:00:14.190Z,100315.94
2024-03-12T04:02:44.406Z,100326.91
2024-03-12T04:05:14.139Z,100325.69
2024-03-12T04:07:42.839Z,100335.88
2024-03-12T04:10:12.764Z,100330.34
2024-03-12T04:12:41.903Z,100345.63
2024-03-12T04:15:11.049Z,100344.00
2024-03-12T04:17:39.262Z,100343.19
2024-03-12T04:20:11.247Z,100347.69
2024-03-12T04:22:40.777Z,100347.69
2024-03-12T04:25:10.025Z,100346.84
2024-03-12T04:27:39.219Z,100355.59
2024-03-12T04:30:10.359Z,100358.25
2024-03-12T04:32:38.531Z,100356.59
2024-03-12T04:35:08.124Z,100361.88
2024-03-12T04:37:36.280Z,100360.28
2024-03-12T04:40:08.256Z,100365.94
2024-03-12T04:42:37.135Z,100365.56
2024-03-12T04:45:06.899Z,100373.50
2024-03-12T04:47:36.591Z,100376.13
2024-03-12T04:50:05.712Z,100376.94
2024-03-12T04:52:35.137Z,100378.19
2024-03-12T04:55:03.117Z,100388.75
2024-03-12T04:57:32.724Z,100387.09
2024-03-12T05:00:01.236Z,100389.16
2024-03-12T05:02:29.082Z,100385.09
2024-03-12T05:04:57.179Z,100393.22
2024-03-12T05:07:24.988Z,100393.22
2024-03-12T05:09:53.444Z,100398.91
2024-03-12T05:12:21.510Z,100402.16
2024-03-12T05:14:50.801Z,100401.34
2024-03-12T05:17:19.168Z,100402.16
2024-03-12T05:19:47.264Z,100403.78
2024-03-12T05:22:15.120Z,100415.97
2024-03-12T05:24:42.968Z,100407.44
2024-03-12T05:27:11.437Z,100411.94
2024-03-12T05:29:43.622Z,100405.81
2024-03-12T05:32:19.840Z,100409.28
2024-03-12T05:34:48.685Z,100404.59
2024-03-12T05:37:30.244Z,100412.94
2024-03-12T05:40:15.912Z,100415.78
2024-03-12T05:43:01.819Z,100421.28
2024-03-12T05:45:47.096Z,100422.09
2024-03-12T05:48:16.629Z,100420.47
2024-03-12T05:50:44.587Z,100423.31
2024-03-12T05:53:12.645Z,100429.00
2024-03-12T05:55:41.813Z,100422.28
2024-03-12T06:00:39.958Z,100447.06
2024-03-12T06:03:08.051Z,100444.44
2024-03-12T06:05:37.279Z,100441.59
2024-03-12T06:08:05.770Z,100441.59
2024-03-12T06:10:33.855Z,100446.25
2024-03-12T06:13:01.673Z,100456.22
2024-03-12T06:15:30.691Z,100455.41
2024-03-12T06:17:58.826Z,100456.44
2024-03-12T06:20:28.349Z,100459.47
2024-03-12T06:22:58.609Z,100458.66
2024-03-12T06:25:26.464Z,100467.19
2024-03-12T06:27:54.884Z,100459.25
2024-03-12T06:30:24.269Z,100451.72
2024-03-12T06:32:52.492Z,100464.91
2024-03-12T06:35:20.493Z,100463.94
2024-03-12T06:37:48.946Z,100468.59
2024-03-12T06:40:18.437Z,100466.97
2024-03-12T06:42:46.397Z,100467.56
2024-03-12T06:45:14.661Z,100471.44
2024-03-12T06:47:42.967Z,100473.66
2024-03-12T06:50:11.497Z,100482.38
2024-03-12T06:52:39.536Z,100477.69
2024-03-12T06:55:16.849Z,100489.06
2024-03-12T06:57:50.321Z,100489.50
2024-03-12T07:00:27.755Z,100489.13
2024-03-12T07:02:56.189Z,100494.63
2024-03-12T07:05:26.795Z,100489.50
2024-03-12T07:07:55.044Z,100496.63
2024-03-12T07:10:24.066Z,100497.25
2024-03-12T07:12:53.431Z,100497.69
2024-03-12T07:15:21.400Z,100509.69
2024-03-12T07:17:49.662Z,100505.41
2024-03-12T07:20:21.522Z,100512.53
2024-03-12T07:22:49.712Z,100515.19
2024-03-12T07:25:18.138Z,100517.00
2024-03-12T07:27:46.044Z,100520.47
2024-03-12T07:30:16.328Z,100521.28
2024-03-12T07:32:44.599Z,100518.63
2024-03-12T07:35:13.163Z,100529.81
2024-03-12T07:37:43.359Z,100521.69
2024-03-12T07:40:13.209Z,100525.31
2024-03-12T07:42:42.367Z,100531.25
2024-03-12T07:45:11.205Z,100535.72
2024-03-12T07:47:40.968Z,100531.84
2024-03-12T07:50:10.398Z,100529.00
2024-03-12T07:52:38.609Z,100530.66
2024-03-12T07:55:07.921Z,100526.38
2024-03-12T07:57:36.886Z,100534.72
2024-03-12T08:00:06.409Z,100539.00
2024-03-12T08:02:34.239Z,100544.69
2024-03-12T08:05:05.685Z,100545.31
2024-03-12T08:07:33.796Z,100542.50
2024-03-12T08:10:02.012Z,100544.91
2024-03-12T08:12:29.941Z,100553.47
2024-03-12T08:14:59.068Z,100547.78
2024-03-12T08:17:27.642Z,100556.31
2024-03-12T08:19:55.612Z,100553.50
2024-03-12T08:22:25.132Z,100549.03
2024-03-12T08:24:53.052Z,100555.13
2024-03-12T08:27:20.977Z,100565.50
2024-03-12T08:29:48.949Z,100548.81
2024-03-12T08:32:16.775Z,100554.72
2024-03-12T08:34:44.613Z,100554.72
2024-03-12T08:37:13.396Z,100561.66
2024-03-12T08:39:42.850Z,100555.94
2024-03-12T08:42:11.228Z,100553.13
2024-03-12T08:44:39.379Z,100557.19
2024-03-12T08:47:08.561Z,100560.47
2024-03-12T08:49:36.682Z,100561.06
2024-03-12T08:52:05.909Z,100558.84
2024-03-12T08:54:34.790Z,100556.19
2024-03-12T08:59:32.189Z,100552.94
2024-03-12T09:02:00.943Z,100551.28
2024-03-12T09:04:31.659Z,100561.69
2024-03-12T09:09:28.751Z,100560.06
2024-03-12T09:11:58.130Z,100563.31
2024-03-12T09:14:27.628Z,100557.00
2024-03-12T09:16:55.436Z,100561.28
2024-03-12T09:19:25.956Z,100559.44
2024-03-12T09:21:54.628Z,100559.25
2024-03-12T09:24:24.000Z,100557.03
2024-03-12T09:26:53.018Z,100557.44
2024-03-12T09:29:21.901Z,100554.41
2024-03-12T09:31:51.263Z,100556.66
2024-03-12T09:34:19.146Z,100557.88
2024-03-12T09:36:47.414Z,100568.28
2024-03-12T09:39:18.248Z,100569.50
2024-03-12T09:41:53.493Z,100566.88
2024-03-12T09:44:22.657Z,100572.16
2024-03-12T09:46:52.513Z,100567.06
2024-03-12T09:49:20.701Z,100566.06
2024-03-12T09:51:48.684Z,100566.06
2024-03-12T09:54:16.860Z,100572.16
2024-03-12T09:56:45.292Z,100572.56
2024-03-12T09:59:13.112Z,100568.69
2024-03-12T10:01:40.976Z,100567.50
2024-03-12T10:04:10.947Z,100559.13
2024-03-12T10:06:39.131Z,100561.38
2024-03-12T10:09:11.992Z,100556.28
2024-03-12T10:11:46.122Z,100556.47
2024-03-12T10:14:14.837Z,100560.34
2024-03-12T10:16:42.821Z,100561.34
2024-03-12T10:19:16.463Z,100550.16
2024-03-12T10:21:46.179Z,100551.38
2024-03-12T10:24:15.282Z,100550.94
2024-03-12T10:26:45.609Z,100547.47
2024-03-12T10:29:19.243Z,100556.44
2024-03-12T10:31:48.158Z,100554.78
2024-03-12T10:34:20.939Z,100553.56
2024-03-12T10:36:51.488Z,100550.94
2024-03-12T10:39:28.624Z,100545.00
2024-03-12T10:41:58.503Z,100542.13
2024-03-12T10:44:29.187Z,100545.41
2024-03-12T10:46:59.504Z,100539.69
2024-03-12T10:49:30.781Z,100534.56
2024-03-12T10:52:00.317Z,100531.50
2024-03-12T10:54:30.664Z,100540.25
2024-03-12T10:57:00.342Z,100534.09
2024-03-12T10:59:32.759Z,100536.34
2024-03-12T11:02:02.475Z,100527.75
2024-03-12T11:04:33.876Z,100539.56
2024-03-12T11:07:03.806Z,100533.66
2024-03-12T11:09:34.146Z,100535.47
2024-03-12T11:12:02.207Z,100529.72
2024-03-12T11:14:30.192Z,100529.91
2024-03-12T11:16:58.051Z,100531.72
2024-03-12T11:19:27.506Z,100529.66
2024-03-12T11:22:02.731Z,100525.16
2024-03-12T11:24:33.333Z,100522.28
2024-03-12T11:27:02.323Z,100528.78
2024-03-12T11:30:15.467Z,100522.22
2024-03-12T11:32:45.973Z,100523.66
2024-03-12T11:35:35.619Z,100527.50
2024-03-12T11:38:10.646Z,100514.03
2024-03-12T11:40:50.144Z,100516.84
2024-03-12T11:43:34.758Z,100511.75
2024-03-12T11:46:02.664Z,100505.63
2024-03-12T11:48:36.098Z,100511.16
2024-03-12T11:51:06.038Z,100517.31
2024-03-12T11:53:37.064Z,100521.81
2024-03-12T11:56:16.774Z,100513.84
2024-03-12T11:58:49.156Z,100510.75
2024-03-12T12:01:20.064Z,100507.09
2024-03-12T12:03:50.919Z,100508.28
2024-03-12T12:06:20.751Z,100506.50
2024-03-12T12:08:57.208Z,100498.69
2024-03-12T12:11:29.951Z,100499.31
2024-03-12T12:14:01.285Z,100500.94
2024-03-12T12:16:30.518Z,100490.91
2024-03-12T12:19:06.512Z,100498.88
2024-03-12T12:21:35.697Z,100490.31
2024-03-12T12:24:05.612Z,100500.94
2024-03-12T12:26:35.636Z,100497.66
2024-03-12T12:29:05.591Z,100488.72
2024-03-12T12:31:37.799Z,100491.75
2024-03-12T12:34:07.772Z,100496.03
2024-03-12T12:36:39.945Z,100494.19
2024-03-12T12:39:11.880Z,100492.34
2024-03-12T12:41:44.602Z,100496.25
2024-03-12T12:44:17.958Z,100493.00
2024-03-12T12:46:48.119Z,100490.34
2024-03-12T12:49:16.509Z,100491.19
2024-03-12T12:51:47.586Z,100494.66
2024-03-12T12:54:19.467Z,100490.97
2024-03-12T12:56:50.960Z,100489.53
2024-03-12T12:59:21.291Z,100486.06
2024-03-12T13:01:50.322Z,100481.78
2024-03-12T13:04:24.321Z,100485.25
2024-03-12T13:06:55.164Z,100492.19
2024-03-12T13:09:33.293Z,100489.34
2024-03-12T13:12:02.969Z,100482.22
2024-03-12T13:14:31.318Z,100482.03
2024-03-12T13:17:01.018Z,100474.06
2024-03-12T13:19:29.345Z,100474.25
2024-03-12T13:21:59.937Z,100469.78
2024-03-12T13:24:30.793Z,100468.53
2024-03-12T13:27:00.300Z,100466.69
2024-03-12T13:29:29.060Z,100464.03
2024-03-12T13:31:57.243Z,100466.91
2024-03-12T13:34:25.508Z,100458.13
2024-03-12T13:36:53.871Z,100454.47
2024-03-12T13:39:21.915Z,100454.47
2024-03-12T13:41:50.841Z,100453.41
2024-03-12T13:44:20.097Z,100454.03
2024-03-12T13:46:47.967Z,100445.03
2024-03-12T13:49:18.194Z,100450.34
2024-03-12T13:51:47.148Z,100442.97
2024-03-12T13:54:16.215Z,100440.31
2024-03-12T13:56:46.439Z,100442.16
2024-03-12T13:59:18.958Z,100441.34
2024-03-12T14:01:49.146Z,100437.66
2024-03-12T14:04:18.394Z,100436.84
2024-03-12T14:06:48.315Z,100433.38
2024-03-12T14:09:16.559Z,100435.25
2024-03-12T14:11:44.585Z,100433.38
2024-03-12T14:14:12.691Z,100437.06
2024-03-12T14:16:40.702Z,100431.78
2024-03-12T14:19:10.074Z,100432.34
2024-03-12T14:21:38.126Z,100434.78
2024-03-12T14:24:06.810Z,100433.38
2024-03-12T14:26:34.680Z,100428.09
2024-03-12T14:29:02.549Z,100429.13
2024-03-12T14:31:30.660Z,100423.81
2024-03-12T14:33:59.297Z,100429.53
2024-03-12T14:36:28.720Z,100423.19
2024-03-12T14:38:57.102Z,100423.19
2024-03-12T14:41:25.047Z,100426.72
2024-03-12T14:43:53.188Z,100421.41
2024-03-12T14:46:21.375Z,100414.50
2024-03-12T14:48:53.539Z,100411.84
2024-03-12T14:51:21.535Z,100413.69
2024-03-12T14:53:50.759Z,100405.50
2024-03-12T14:56:18.670Z,100401.81
2024-03-12T14:58:46.481Z,100396.50
2024-03-12T15:01:15.301Z,100399.78
2024-03-12T15:03:44.737Z,100403.88
2024-03-12T15:06:13.506Z,100395.34
2024-03-12T15:08:41.643Z,100400.66
2024-03-12T15:11:10.958Z,100385.16
2024-03-12T15:13:39.255Z,100388.63
2024-03-12T15:16:08.374Z,100380.66
2024-03-12T15:18:36.693Z,100375.34
2024-03-12T15:21:06.342Z,100376.59
2024-03-12T15:23:34.036Z,100370.84
2024-03-12T15:26:03.608Z,100363.94
2024-03-12T15:28:32.613Z,100362.66
2024-03-12T15:31:01.055Z,100359.66
2024-03-12T15:33:32.962Z,100351.31
2024-03-12T15:36:01.575Z,100345.44
2024-03-12T15:38:30.016Z,100359.09
2024-03-12T15:40:58.596Z,100344.44
2024-03-12T15:43:27.201Z,100342.81
2024-03-12T15:45:56.940Z,100335.88
2024-03-12T15:48:25.103Z,100339.56
2024-03-12T15:50:53.655Z,100334.25
2024-03-12T15:53:21.564Z,100328.34
2024-03-12T15:55:49.442Z,100328.34
2024-03-12T15:58:18.675Z,100328.34
2024-03-12T16:00:47.135Z,100323.50
2024-03-12T16:03:16.381Z,100320.41
2024-03-12T16:05:44.667Z,100320.84
2024-03-12T16:08:13.645Z,100313.94
2024-03-12T16:10:41.937Z,100315.53
2024-03-12T16:13:11.864Z,100308.63
2024-03-12T16:15:39.792Z,100311.28
2024-03-12T16:18:07.959Z,100308.63
2024-03-12T16:20:38.329Z,100302.72
2024-03-12T16:23:06.170Z,100307.44
2024-03-12T16:25:34.029Z,100305.97
2024-03-12T16:28:02.684Z,100300.66
2024-03-12T16:30:30.533Z,100296.41
2024-03-12T16:32:58.811Z,100298.81
2024-03-12T16:35:29.529Z,100304.59
2024-03-12T16:37:58.749Z,100296.41
2024-03-12T16:40:27.577Z,100299.28
2024-03-12T16:42:57.251Z,100291.09
2024-03-12T16:45:25.270Z,100292.53
2024-03-12T16:47:53.125Z,100279.47
2024-03-12T16:50:22.185Z,100288.22
2024-03-12T16:52:50.012Z,100285.56
2024-03-12T16:55:20.055Z,100283.75
2024-03-12T16:57:48.874Z,100283.16
2024-03-12T17:00:17.743Z,100286.59
2024-03-12T17:02:46.583Z,100286.84
2024-03-12T17:05:17.630Z,100284.75
2024-03-12T17:07:50.205Z,100278.66
2024-03-12T17:10:20.505Z,100290.28
2024-03-12T17:12:49.485Z,100289.47
2024-03-12T17:15:20.361Z,100281.75
2024-03-12T17:17:49.166Z,100283.38
2024-03-12T17:20:17.606Z,100280.72
2024-03-12T17:22:46.840Z,100274.38
2024-03-12T17:25:17.914Z,100281.31
2024-03-12T17:27:50.549Z,100291.91
2024-03-12T17:30:19.411Z,100276.44
2024-03-12T17:32:48.157Z,100283.94
2024-03-12T17:35:19.066Z,100273.97
2024-03-12T17:37:49.378Z,100268.66
2024-03-12T17:40:20.127Z,100272.31
2024-03-12T17:42:51.171Z,100267.84
2024-03-12T17:45:20.077Z,100289.88
2024-03-12T17:47:50.312Z,100287.41
2024-03-12T17:50:20.614Z,100286.59
2024-03-12T17:52:50.879Z,100287.88
2024-03-12T17:55:20.604Z,100280.94
2024-03-12T17:57:51.886Z,100291.75
2024-03-12T18:00:22.662Z,100297.66
2024-03-12T18:02:51.728Z,100301.31
2024-03-12T18:05:21.281Z,100303.16
2024-03-12T18:07:53.589Z,100292.38
2024-03-12T18:10:23.510Z,100290.72
2024-03-12T18:12:53.796Z,100302.97
2024-03-12T18:15:21.875Z,100298.66
2024-03-12T18:17:49.853Z,100297.84
2024-03-12T18:20:25.009Z,100302.97
2024-03-12T18:22:53.892Z,100294.78
2024-03-12T18:25:21.985Z,100300.91
2024-03-12T18:27:51.644Z,100300.91
2024-03-12T18:30:21.529Z,100299.28
2024-03-12T18:32:50.171Z,100299.28
2024-03-12T18:35:20.073Z,100307.00
2024-03-12T18:37:48.259Z,100302.50
2024-03-12T18:40:20.027Z,100305.16
2024-03-12T18:42:49.201Z,100311.09
2024-03-12T18:45:19.829Z,100309.03
2024-03-12T18:47:51.130Z,100313.94
2024-03-12T18:50:21.282Z,100307.59
2024-03-12T18:52:49.672Z,100306.56
2024-03-12T18:55:19.147Z,100308.16
2024-03-12T18:57:47.872Z,100310.97
2024-03-12T19:00:19.733Z,100312.59
2024-03-12T19:02:52.954Z,100303.63
2024-03-12T19:05:23.428Z,100302.59
2024-03-12T19:07:53.244Z,100303.19
2024-03-12T19:10:23.636Z,100297.88
2024-03-12T19:12:52.138Z,100299.06
2024-03-12T19:15:22.844Z,100299.69
2024-03-12T19:17:53.039Z,100301.88
2024-03-12T19:20:24.071Z,100302.25
2024-03-12T19:22:54.932Z,100296.97
2024-03-12T19:25:27.505Z,100301.00
2024-03-12T19:27:56.172Z,100304.03
2024-03-12T19:30:25.731Z,100298.28
2024-03-12T19:32:56.706Z,100305.00
2024-03-12T19:35:24.983Z,100298.44
2024-03-12T19:37:54.194Z,100304.09
2024-03-12T19:40:23.071Z,100298.38
2024-03-12T19:42:53.700Z,100301.59
2024-03-12T19:45:24.827Z,100292.16
2024-03-12T19:47:53.766Z,100297.28
2024-03-12T19:50:25.957Z,100300.50
2024-03-12T19:52:57.663Z,100303.53
2024-03-12T19:55:27.392Z,100311.84
2024-03-12T19:57:57.320Z,100312.22
2024-03-12T20:00:27.953Z,100308.09
2024-03-12T20:02:56.693Z,100316.66
2024-03-12T20:05:28.440Z,100314.81
2024-03-12T20:07:56.994Z,100310.31
2024-03-12T20:10:26.397Z,100305.16
2024-03-12T20:12:56.534Z,100317.97
2024-03-12T20:15:25.095Z,100319.69
2024-03-12T20:17:53.286Z,100327.56
2024-03-12T20:20:24.397Z,100323.06
2024-03-12T20:22:54.320Z,100333.63
2024-03-12T20:25:23.855Z,100328.50
2024-03-12T20:27:54.036Z,100330.50
2024-03-12T20:30:23.260Z,100332.72
2024-03-12T20:32:53.647Z,100328.78
2024-03-12T20:35:22.601Z,100332.16
2024-03-12T20:37:50.817Z,100323.47
2024-03-12T20:40:24.197Z,100319.34
2024-03-12T20:42:52.035Z,100324.66
2024-03-12T20:45:22.429Z,100330.59
2024-03-12T20:47:51.103Z,100339.94
2024-03-12T20:50:20.013Z,100338.91
2024-03-12T20:52:48.588Z,100338.91
2024-03-12T20:55:17.223Z,100337.06
2024-03-12T20:57:49.125Z,100340.53
2024-03-12T21:00:19.838Z,100343.19
2024-03-12T21:02:49.477Z,100354.41
2024-03-12T21:05:19.609Z,100349.09
2024-03-12T21:07:47.716Z,100353.97
2024-03-12T21:10:15.707Z,100362.13
2024-03-12T21:12:44.862Z,100366.63
2024-03-12T21:15:17.146Z,100360.91
2024-03-12T21:17:46.309Z,100360.09
2024-03-12T21:20:19.188Z,100368.88
2024-03-12T21:22:47.798Z,100363.31
2024-03-12T21:25:16.742Z,100362.50
2024-03-12T21:27:44.695Z,100373.72
2024-03-12T21:30:17.826Z,100370.25
2024-03-12T21:32:45.974Z,100379.44
2024-03-12T21:35:13.856Z,100380.47
2024-03-12T21:37:42.135Z,100375.97
2024-03-12T21:40:13.263Z,100373.88
2024-03-12T21:42:44.086Z,100382.91
2024-03-12T21:45:13.273Z,100380.03
2024-03-12T21:47:46.098Z,100377.94
2024-03-12T21:50:16.476Z,100378.75
2024-03-12T21:52:46.690Z,100386.16
2024-03-12T21:55:15.328Z,100385.13
2024-03-12T21:57:44.777Z,100389.38
2024-03-12T22:00:20.736Z,100388.81
2024-03-12T22:02:50.971Z,100381.41
2024-03-12T22:05:21.455Z,100385.13
2024-03-12T22:07:51.026Z,100379.19
2024-03-12T22:10:19.511Z,100392.06
2024-03-12T22:12:48.461Z,100385.69
2024-03-12T22:15:17.009Z,100389.38
2024-03-12T22:17:45.730Z,100381.69
2024-03-12T22:20:20.109Z,100391.69
2024-03-12T22:22:48.608Z,100395.75
2024-03-12T22:25:17.531Z,100404.16
2024-03-12T22:27:47.311Z,100402.13
2024-03-12T22:30:17.685Z,100402.53
2024-03-12T22:32:48.657Z,100405.78
2024-03-12T22:35:19.531Z,100408.66
2024-03-12T22:37:49.837Z,100413.75
2024-03-12T22:40:19.744Z,100409.47
2024-03-12T22:42:48.838Z,100415.38
2024-03-12T22:45:18.004Z,100407.41
2024-03-12T22:47:46.244Z,100415.38
2024-03-12T22:50:15.245Z,100404.75
2024-03-12T22:52:48.692Z,100414.13
2024-03-12T22:55:17.678Z,100410.06
2024-03-12T22:57:45.991Z,100418.63
2024-03-12T23:00:31.478Z,100417.00
2024-03-12T23:03:01.488Z,100415.38
2024-03-12T23:05:34.941Z,100417.00
2024-03-12T23:08:06.912Z,100415.16
2024-03-12T23:10:36.565Z,100412.13
2024-03-12T23:13:05.137Z,100421.28
2024-03-12T23:15:33.195Z,100411.91
2024-03-12T23:18:04.133Z,100417.25
2024-03-12T23:20:32.738Z,100423.94
2024-03-12T23:23:01.242Z,100422.56
2024-03-12T23:25:30.945Z,100423.34
2024-03-12T23:28:00.551Z,100421.13
2024-03-12T23:30:28.781Z,100418.25
2024-03-12T23:32:59.325Z,100432.34
2024-03-12T23:35:29.066Z,100437.06
2024-03-12T23:37:59.136Z,100429.91
2024-03-12T23:40:27.455Z,100430.97
2024-03-12T23:42:57.261Z,100430.72
2024-03-12T23:45:25.569Z,100435.22
2024-03-12T23:47:53.565Z,100437.06
2024-03-12T23:50:21.923Z,100441.97
2024-03-12T23:52:50.348Z,100435.00
2024-03-12T23:55:18.217Z,100437.66
2024-03-12T23:57:46.114Z,100439.31
